createdAt,value
2019-01-11T00:01:50.141Z,2.58
2019-01-11T00:03:53.859Z,2.30
2019-01-11T00:05:56.762Z,2.72
2019-01-11T00:08:00.583Z,2.10
2019-01-11T00:10:03.736Z,2.40
2019-01-11T00:12:06.643Z,2.17
2019-01-11T00:14:09.553Z,2.13
2019-01-11T00:16:13.002Z,2.23
2019-01-11T00:18:15.912Z,2.62
2019-01-11T00:20:18.933Z,2.10
2019-01-11T00:22:22.650Z,1.90
2019-01-11T00:24:26.318Z,3.15
2019-01-11T00:26:29.226Z,1.92
2019-01-11T00:28:33.031Z,2.92
2019-01-11T00:30:35.998Z,2.40
2019-01-11T00:32:39.682Z,2.00
2019-01-11T00:34:42.606Z,2.63
2019-01-11T00:36:45.515Z,2.75
2019-01-11T00:38:48.441Z,2.45
2019-01-11T00:40:52.227Z,2.60
2019-01-11T00:42:55.138Z,3.15
2019-01-11T00:44:58.054Z,2.55
2019-01-11T00:47:01.003Z,2.20
2019-01-11T00:49:05.510Z,1.80
2019-01-11T00:51:09.179Z,2.17
2019-01-11T00:53:12.601Z,2.22
2019-01-11T00:55:16.275Z,2.70
2019-01-11T00:57:19.282Z,2.43
2019-01-11T00:59:22.982Z,2.10
2019-01-11T01:01:25.999Z,3.08
2019-01-11T01:03:28.902Z,2.53
2019-01-11T01:05:31.854Z,3.25
2019-01-11T01:07:34.763Z,2.62
2019-01-11T01:09:37.665Z,2.20
2019-01-11T01:11:40.625Z,2.03
2019-01-11T01:13:43.530Z,2.85
2019-01-11T01:15:46.541Z,3.00
2019-01-11T01:17:50.260Z,2.53
2019-01-11T01:19:53.199Z,2.95
2019-01-11T01:21:56.111Z,2.50
2019-01-11T01:24:00.010Z,3.90
2019-01-11T01:26:03.686Z,3.20
2019-01-11T01:28:06.614Z,2.70
2019-01-11T01:30:10.482Z,2.65
2019-01-11T01:32:14.159Z,3.03
2019-01-11T01:34:17.064Z,2.80
2019-01-11T01:36:20.803Z,2.83
2019-01-11T01:38:23.714Z,2.28
2019-01-11T01:40:26.720Z,3.22
2019-01-11T01:42:30.455Z,3.00
2019-01-11T01:44:33.371Z,3.05
2019-01-11T01:46:36.282Z,2.90
2019-01-11T01:48:39.402Z,3.00
2019-01-11T01:50:42.312Z,3.00
2019-01-11T01:52:45.215Z,3.08
2019-01-11T01:54:48.277Z,2.85
2019-01-11T01:56:51.174Z,3.05
2019-01-11T01:58:54.202Z,3.72
2019-01-11T02:00:58.467Z,3.10
2019-01-11T02:03:01.379Z,3.65
2019-01-11T02:05:04.313Z,3.58
2019-01-11T02:07:07.259Z,3.65
2019-01-11T02:09:10.926Z,3.00
2019-01-11T02:11:13.849Z,3.13
2019-01-11T02:13:17.934Z,3.20
2019-01-11T02:15:20.934Z,3.57
2019-01-11T02:17:24.632Z,4.10
2019-01-11T02:19:32.958Z,3.93
2019-01-11T02:21:31.378Z,2.70
2019-01-11T02:23:34.297Z,3.22
2019-01-11T02:25:37.587Z,2.90
2019-01-11T02:27:41.245Z,3.30
2019-01-11T02:29:44.174Z,2.40
2019-01-11T02:31:47.975Z,2.70
2019-01-11T02:33:51.649Z,3.83
2019-01-11T02:35:54.582Z,3.05
2019-01-11T02:37:57.517Z,3.20
2019-01-11T02:40:01.135Z,2.95
2019-01-11T02:42:03.992Z,2.70
2019-01-11T02:44:06.930Z,3.45
2019-01-11T02:46:09.839Z,2.67
2019-01-11T02:48:12.757Z,3.17
2019-01-11T02:50:16.582Z,3.30
2019-01-11T02:52:19.482Z,3.20
2019-01-11T02:54:22.393Z,2.70
2019-01-11T02:56:25.327Z,3.00
2019-01-11T02:58:29.042Z,3.90
2019-01-11T03:00:31.941Z,3.10
2019-01-11T03:02:34.988Z,3.08
2019-01-11T03:04:37.891Z,3.27
2019-01-11T03:06:40.865Z,2.87
2019-01-11T03:08:43.820Z,3.37
2019-01-11T03:10:47.486Z,3.47
2019-01-11T03:12:50.486Z,2.72
2019-01-11T03:14:54.936Z,3.25
2019-01-11T03:16:58.611Z,2.80
2019-01-11T03:19:02.284Z,3.17
2019-01-11T03:21:05.315Z,2.80
2019-01-11T03:23:08.965Z,2.87
2019-01-11T03:25:11.985Z,2.80
2019-01-11T03:27:15.785Z,3.00
2019-01-11T03:29:18.679Z,2.87
2019-01-11T03:31:21.624Z,3.60
2019-01-11T03:33:24.963Z,3.20
2019-01-11T03:35:27.879Z,3.10
2019-01-11T03:37:30.778Z,3.80
2019-01-11T03:39:33.726Z,3.67
2019-01-11T03:41:36.630Z,3.28
2019-01-11T03:43:39.647Z,2.90
2019-01-11T03:45:43.479Z,3.30
2019-01-11T03:47:46.381Z,3.30
2019-01-11T03:49:54.788Z,3.50
2019-01-11T03:51:52.296Z,3.55
2019-01-11T03:53:55.962Z,3.50
2019-01-11T03:55:58.881Z,3.70
2019-01-11T03:58:03.505Z,3.03
2019-01-11T04:00:12.948Z,3.47
2019-01-11T04:02:15.865Z,3.50
2019-01-11T04:04:18.809Z,4.12
2019-01-11T04:06:21.729Z,4.18
2019-01-11T04:08:24.767Z,4.10
2019-01-11T04:10:28.564Z,3.85
2019-01-11T04:12:32.236Z,4.00
2019-01-11T04:14:35.186Z,3.57
2019-01-11T04:16:38.333Z,5.53
2019-01-11T04:18:41.999Z,4.65
2019-01-11T04:20:45.016Z,4.03
2019-01-11T04:22:51.460Z,4.47
2019-01-11T04:25:06.094Z,4.30
2019-01-11T04:27:09.036Z,4.57
2019-01-11T04:29:11.967Z,4.40
2019-01-11T04:31:15.088Z,5.40
2019-01-11T04:33:18.752Z,4.45
2019-01-11T04:35:22.179Z,4.95
2019-01-11T04:37:25.846Z,5.20
2019-01-11T04:39:28.869Z,5.82
2019-01-11T04:41:32.767Z,5.28
2019-01-11T04:43:36.435Z,5.00
2019-01-11T04:45:39.354Z,6.35
2019-01-11T04:47:42.295Z,5.87
2019-01-11T04:49:45.223Z,5.43
2019-01-11T04:51:48.133Z,5.70
2019-01-11T04:53:51.281Z,5.87
2019-01-11T04:55:54.985Z,6.15
2019-01-11T04:57:57.894Z,6.43
2019-01-11T05:00:01.054Z,6.40
2019-01-11T05:02:04.731Z,6.65
2019-01-11T05:04:08.409Z,6.10
2019-01-11T05:06:11.348Z,6.15
2019-01-11T05:08:14.254Z,5.32
2019-01-11T05:10:17.176Z,6.47
2019-01-11T05:12:20.901Z,6.27
2019-01-11T05:14:24.569Z,6.70
2019-01-11T05:16:28.291Z,6.18
2019-01-11T05:18:31.991Z,5.70
2019-01-11T05:20:35.673Z,7.18
2019-01-11T05:22:39.366Z,7.07
2019-01-11T05:24:42.324Z,7.65
2019-01-11T05:26:45.262Z,8.32
2019-01-11T05:28:49.661Z,7.37
2019-01-11T05:30:53.505Z,7.60
2019-01-11T05:32:56.403Z,7.67
2019-01-11T05:35:00.348Z,8.55
2019-01-11T05:37:03.447Z,8.73
2019-01-11T05:39:07.119Z,8.50
2019-01-11T05:41:10.129Z,8.50
2019-01-11T05:43:13.931Z,8.45
2019-01-11T05:45:16.824Z,8.60
2019-01-11T05:47:19.739Z,8.30
2019-01-11T05:49:22.780Z,9.48
2019-01-11T05:51:26.452Z,9.48
2019-01-11T05:53:29.464Z,8.93
2019-01-11T05:55:51.036Z,8.13
2019-01-11T05:58:03.869Z,9.65
2019-01-11T06:00:06.802Z,9.83
2019-01-11T06:02:09.965Z,9.43
2019-01-11T06:04:13.642Z,9.67
2019-01-11T06:06:16.767Z,9.32
2019-01-11T06:08:19.710Z,9.80
2019-01-11T06:10:22.627Z,10.27
2019-01-11T06:12:25.551Z,9.70
2019-01-11T06:14:28.526Z,10.32
2019-01-11T06:16:31.455Z,9.25
2019-01-11T06:18:35.126Z,10.05
2019-01-11T06:20:38.091Z,9.82
2019-01-11T06:22:40.996Z,9.18
2019-01-11T06:24:43.910Z,10.52
2019-01-11T06:26:47.706Z,10.30
2019-01-11T06:28:51.377Z,10.00
2019-01-11T06:30:54.388Z,10.50
2019-01-11T06:32:58.292Z,10.65
2019-01-11T06:35:01.981Z,9.57
2019-01-11T06:37:04.975Z,9.63
2019-01-11T06:39:08.738Z,10.55
2019-01-11T06:41:11.659Z,9.75
2019-01-11T06:43:15.352Z,10.45
2019-01-11T06:45:18.417Z,9.10
2019-01-11T06:47:22.107Z,9.77
2019-01-11T06:49:25.074Z,9.45
2019-01-11T06:51:28.010Z,8.63
2019-01-11T06:53:31.686Z,10.55
2019-01-11T06:55:34.622Z,9.35
2019-01-11T06:57:37.661Z,10.38
2019-01-11T06:59:41.333Z,11.20
2019-01-11T07:01:44.272Z,9.15
2019-01-11T07:03:47.215Z,8.75
2019-01-11T07:05:50.146Z,9.47
2019-01-11T07:07:53.054Z,8.18
2019-01-11T07:09:56.069Z,10.98
2019-01-11T07:11:59.751Z,9.05
2019-01-11T07:14:03.310Z,9.40
2019-01-11T07:16:06.264Z,10.00
2019-01-11T07:18:09.945Z,9.50
2019-01-11T07:20:12.857Z,10.98
2019-01-11T07:22:16.133Z,9.57
2019-01-11T07:24:19.801Z,9.95
2019-01-11T07:26:22.730Z,9.37
2019-01-11T07:28:25.661Z,10.00
2019-01-11T07:30:28.577Z,9.98
2019-01-11T07:32:32.249Z,9.75
2019-01-11T07:34:35.481Z,8.60
2019-01-11T07:36:38.416Z,10.37
2019-01-11T07:38:41.394Z,10.23
2019-01-11T07:40:44.333Z,11.30
2019-01-11T07:42:47.260Z,9.68
2019-01-11T07:44:50.186Z,8.60
2019-01-11T07:46:53.273Z,9.90
2019-01-11T07:48:56.173Z,9.43
2019-01-11T07:50:59.098Z,10.55
2019-01-11T07:53:02.065Z,9.93
2019-01-11T07:55:04.986Z,10.27
2019-01-11T07:57:08.662Z,10.05
2019-01-11T07:59:12.389Z,9.90
2019-01-11T08:01:16.065Z,9.93
2019-01-11T08:03:19.753Z,9.65
2019-01-11T08:05:22.975Z,9.37
2019-01-11T08:07:26.655Z,11.20
2019-01-11T08:09:29.575Z,10.03
2019-01-11T08:11:32.754Z,9.07
2019-01-11T08:13:36.454Z,9.65
2019-01-11T08:15:40.130Z,10.80
2019-01-11T08:17:43.845Z,9.50
2019-01-11T08:19:47.533Z,10.40
2019-01-11T08:21:50.488Z,10.48
2019-01-11T08:23:53.423Z,9.97
2019-01-11T08:25:56.345Z,10.40
2019-01-11T08:27:59.372Z,10.82
2019-01-11T08:30:03.092Z,10.30
2019-01-11T08:32:06.001Z,9.85
2019-01-11T08:34:08.921Z,9.55
2019-01-11T08:36:12.632Z,10.25
2019-01-11T08:38:16.313Z,10.03
2019-01-11T08:40:20.140Z,10.60
2019-01-11T08:42:24.518Z,10.25
2019-01-11T08:44:27.544Z,9.93
2019-01-11T08:46:31.345Z,10.43
2019-01-11T08:48:35.178Z,10.35
2019-01-11T08:50:38.097Z,11.00
2019-01-11T08:52:41.006Z,10.95
2019-01-11T08:54:44.720Z,10.90
2019-01-11T08:56:47.643Z,12.00
2019-01-11T08:58:50.728Z,10.35
2019-01-11T09:00:53.964Z,9.73
2019-01-11T09:02:57.630Z,11.60
2019-01-11T09:05:00.664Z,10.90
2019-01-11T09:07:03.675Z,12.20
2019-01-11T09:09:06.594Z,11.38
2019-01-11T09:11:10.278Z,11.43
2019-01-11T09:13:14.233Z,22.20
2019-01-11T09:15:17.171Z,19.15
2019-01-11T09:17:20.119Z,18.23
2019-01-11T09:19:23.069Z,16.02
2019-01-11T09:21:26.865Z,13.55
2019-01-11T09:23:30.548Z,12.32
2019-01-11T09:25:34.468Z,11.33
2019-01-11T09:27:38.271Z,12.70
2019-01-11T09:29:41.968Z,11.63
2019-01-11T09:31:45.689Z,13.10
2019-01-11T09:33:48.609Z,12.37
2019-01-11T09:35:51.513Z,12.45
2019-01-11T09:37:55.255Z,12.55
2019-01-11T09:39:58.174Z,12.03
2019-01-11T09:42:01.200Z,11.60
2019-01-11T09:44:05.338Z,12.43
2019-01-11T09:46:08.277Z,10.68
2019-01-11T09:48:11.986Z,11.07
2019-01-11T09:50:16.420Z,11.20
2019-01-11T09:52:20.313Z,11.80
2019-01-11T09:54:24.012Z,11.13
2019-01-11T09:56:29.161Z,10.70
2019-01-11T09:58:33.032Z,11.77
2019-01-11T10:00:37.593Z,12.23
2019-01-11T10:02:40.573Z,11.40
2019-01-11T10:04:43.565Z,12.18
2019-01-11T10:06:46.487Z,12.00
2019-01-11T10:08:49.631Z,11.90
2019-01-11T10:10:52.562Z,9.90
2019-01-11T10:12:55.578Z,11.10
2019-01-11T10:14:59.560Z,12.80
2019-01-11T10:17:03.248Z,10.90
2019-01-11T10:19:06.258Z,10.77
2019-01-11T10:21:10.063Z,11.12
2019-01-11T10:23:13.775Z,11.73
2019-01-11T10:25:17.469Z,11.73
2019-01-11T10:27:21.264Z,10.75
2019-01-11T10:29:24.998Z,11.25
2019-01-11T10:31:27.923Z,10.60
2019-01-11T10:33:36.189Z,10.70
2019-01-11T10:35:34.713Z,9.98
2019-01-11T10:37:37.651Z,12.43
2019-01-11T10:39:40.800Z,11.60
2019-01-11T10:41:44.486Z,11.73
2019-01-11T10:43:48.173Z,12.53
2019-01-11T10:45:51.194Z,13.17
2019-01-11T10:47:54.116Z,12.73
2019-01-11T10:49:57.059Z,13.20
2019-01-11T10:52:00.012Z,12.20
2019-01-11T10:54:03.694Z,13.95
2019-01-11T10:56:06.613Z,12.75
2019-01-11T10:58:10.320Z,12.40
2019-01-11T11:00:16.777Z,13.20
2019-01-11T11:02:20.476Z,12.77
2019-01-11T11:04:23.405Z,12.70
2019-01-11T11:06:26.350Z,12.95
2019-01-11T11:08:29.345Z,12.40
2019-01-11T11:10:32.426Z,11.43
2019-01-11T11:12:35.388Z,13.25
2019-01-11T11:14:39.065Z,10.88
2019-01-11T11:16:42.174Z,12.65
2019-01-11T11:18:45.841Z,12.70
2019-01-11T11:20:50.267Z,12.93
2019-01-11T11:22:53.225Z,11.67
2019-01-11T11:24:56.161Z,12.50
2019-01-11T11:26:59.957Z,11.73
2019-01-11T11:29:03.166Z,12.40
2019-01-11T11:31:06.082Z,12.02
2019-01-11T11:33:09.055Z,11.55
2019-01-11T11:35:12.050Z,10.57
2019-01-11T11:37:17.783Z,11.87
2019-01-11T11:39:18.038Z,12.43
2019-01-11T11:41:21.048Z,10.83
2019-01-11T11:43:23.970Z,11.93
2019-01-11T11:45:26.884Z,11.35
2019-01-11T11:47:30.093Z,11.63
2019-01-11T11:49:33.774Z,11.12
2019-01-11T11:51:41.237Z,11.85
2019-01-11T11:53:40.435Z,13.75
2019-01-11T11:55:43.358Z,11.93
2019-01-11T11:57:47.043Z,12.85
2019-01-11T11:59:50.781Z,11.73
2019-01-11T12:01:53.708Z,13.60
2019-01-11T12:03:56.633Z,13.23
2019-01-11T12:05:59.589Z,11.43
2019-01-11T12:08:03.273Z,12.40
2019-01-11T12:10:06.403Z,12.30
2019-01-11T12:12:09.344Z,12.25
2019-01-11T12:14:12.377Z,11.90
2019-01-11T12:16:15.393Z,13.20
2019-01-11T12:18:18.747Z,12.60
2019-01-11T12:20:22.589Z,12.65
2019-01-11T12:22:25.517Z,12.52
2019-01-11T12:24:29.317Z,11.18
2019-01-11T12:26:33.006Z,13.07
2019-01-11T12:28:35.906Z,13.50
2019-01-11T12:30:39.172Z,12.20
2019-01-11T12:32:43.078Z,11.93
2019-01-11T12:34:46.786Z,14.68
2019-01-11T12:36:50.508Z,13.50
2019-01-11T12:38:53.580Z,11.38
2019-01-11T12:40:56.506Z,12.77
2019-01-11T12:42:59.461Z,11.93
2019-01-11T12:45:02.386Z,12.57
2019-01-11T12:47:05.408Z,12.75
2019-01-11T12:49:09.321Z,12.13
2019-01-11T12:51:12.265Z,13.73
2019-01-11T12:53:15.189Z,13.77
2019-01-11T12:55:18.120Z,12.70
2019-01-11T12:57:21.105Z,12.80
2019-01-11T12:59:24.055Z,12.60
2019-01-11T13:01:27.115Z,12.68
2019-01-11T13:03:30.070Z,13.87
2019-01-11T13:05:32.992Z,11.70
2019-01-11T13:07:35.955Z,13.45
2019-01-11T13:09:39.684Z,12.73
2019-01-11T13:11:42.741Z,13.27
2019-01-11T13:13:46.544Z,12.45
2019-01-11T13:15:50.218Z,12.88
2019-01-11T13:17:53.131Z,12.50
2019-01-11T13:19:56.148Z,11.52
2019-01-11T13:22:00.612Z,11.45
2019-01-11T13:24:01.986Z,12.82
2019-01-11T13:26:05.073Z,11.93
2019-01-11T13:28:07.989Z,13.02
2019-01-11T13:30:11.690Z,12.98
2019-01-11T13:32:14.837Z,11.57
2019-01-11T13:34:17.765Z,11.60
2019-01-11T13:36:20.701Z,11.55
2019-01-11T13:38:23.774Z,11.43
2019-01-11T13:40:27.575Z,12.60
2019-01-11T13:42:30.659Z,11.07
2019-01-11T13:44:34.806Z,10.38
2019-01-11T13:46:37.730Z,12.73
2019-01-11T13:48:40.662Z,11.60
2019-01-11T13:50:43.626Z,11.75
2019-01-11T13:52:46.558Z,10.97
2019-01-11T13:54:49.465Z,11.35
2019-01-11T13:56:53.203Z,10.45
2019-01-11T13:58:56.146Z,11.55
2019-01-11T14:00:59.089Z,11.30
2019-01-11T14:03:02.130Z,11.50
2019-01-11T14:05:05.801Z,11.68
2019-01-11T14:07:10.232Z,10.77
2019-01-11T14:09:14.374Z,11.73
2019-01-11T14:11:17.289Z,11.12
2019-01-11T14:13:20.208Z,11.45
2019-01-11T14:15:25.067Z,9.85
2019-01-11T14:17:27.990Z,10.93
2019-01-11T14:19:30.920Z,11.43
2019-01-11T14:21:33.871Z,10.53
2019-01-11T14:23:36.790Z,12.00
2019-01-11T14:25:39.798Z,10.60
2019-01-11T14:27:42.791Z,11.50
2019-01-11T14:29:45.709Z,12.10
2019-01-11T14:31:49.398Z,12.15
2019-01-11T14:33:52.624Z,12.00
2019-01-11T14:35:56.785Z,10.48
2019-01-11T14:38:01.341Z,11.53
2019-01-11T14:40:05.308Z,12.65
2019-01-11T14:42:08.403Z,10.85
2019-01-11T14:44:12.009Z,11.80
2019-01-11T14:46:14.914Z,11.70
2019-01-11T14:48:18.593Z,10.65
2019-01-11T14:50:21.514Z,11.85
2019-01-11T14:52:25.010Z,13.02
2019-01-11T14:54:27.953Z,13.93
2019-01-11T14:56:31.638Z,11.73
2019-01-11T14:58:35.986Z,13.00
2019-01-11T15:00:39.688Z,12.65
2019-01-11T15:02:43.371Z,12.50
2019-01-11T15:04:47.289Z,12.67
2019-01-11T15:06:50.974Z,12.47
2019-01-11T15:08:53.971Z,12.00
2019-01-11T15:10:58.251Z,12.17
2019-01-11T15:13:01.268Z,12.65
2019-01-11T15:15:04.942Z,11.10
2019-01-11T15:17:07.886Z,12.00
2019-01-11T15:19:14.053Z,11.90
2019-01-11T15:21:13.816Z,11.25
2019-01-11T15:23:17.822Z,12.80
2019-01-11T15:25:21.500Z,12.55
2019-01-11T15:27:24.425Z,11.88
2019-01-11T15:29:27.428Z,12.15
2019-01-11T15:31:30.350Z,12.45
2019-01-11T15:33:34.170Z,10.90
2019-01-11T15:35:37.834Z,12.07
2019-01-11T15:37:40.758Z,11.77
2019-01-11T15:39:44.554Z,10.98
2019-01-11T15:41:48.222Z,13.15
2019-01-11T15:43:51.389Z,11.67
2019-01-11T15:45:54.330Z,11.53
2019-01-11T15:47:58.761Z,10.40
2019-01-11T15:50:01.843Z,11.30
2019-01-11T15:52:04.777Z,11.20
2019-01-11T15:54:07.686Z,12.30
2019-01-11T15:56:11.393Z,11.40
2019-01-11T15:58:14.326Z,10.20
2019-01-11T16:00:17.240Z,11.60
2019-01-11T16:02:20.173Z,12.70
2019-01-11T16:04:23.093Z,13.30
2019-01-11T16:06:26.817Z,12.27
2019-01-11T16:08:30.618Z,13.23
2019-01-11T16:10:34.293Z,12.47
2019-01-11T16:12:37.278Z,11.10
2019-01-11T16:14:54.251Z,10.80
2019-01-11T16:16:57.210Z,10.88
2019-01-11T16:19:01.283Z,11.20
2019-01-11T16:21:04.492Z,11.80
2019-01-11T16:23:08.269Z,11.07
2019-01-11T16:25:11.188Z,13.18
2019-01-11T16:27:14.161Z,13.73
2019-01-11T16:29:17.833Z,13.07
2019-01-11T16:31:20.754Z,12.55
2019-01-11T16:33:23.722Z,12.90
2019-01-11T16:35:27.599Z,13.57
2019-01-11T16:37:30.446Z,12.10
2019-01-11T16:39:33.402Z,12.13
2019-01-11T16:41:36.319Z,12.73
2019-01-11T16:43:40.040Z,11.80
2019-01-11T16:45:42.974Z,11.63
2019-01-11T16:47:45.909Z,12.48
2019-01-11T16:49:48.914Z,12.07
2019-01-11T16:51:52.630Z,11.75
2019-01-11T16:53:55.560Z,12.13
2019-01-11T16:55:58.465Z,12.15
2019-01-11T16:58:02.176Z,12.85
2019-01-11T17:00:20.829Z,12.93
2019-01-11T17:02:24.504Z,13.23
2019-01-11T17:04:27.457Z,12.30
2019-01-11T17:06:30.357Z,13.10
2019-01-11T17:08:33.392Z,12.70
2019-01-11T17:10:36.344Z,12.35
2019-01-11T17:12:41.922Z,13.55
2019-01-11T17:14:43.145Z,12.35
2019-01-11T17:16:46.945Z,10.93
2019-01-11T17:18:50.622Z,11.90
2019-01-11T17:20:53.628Z,10.75
2019-01-11T17:22:57.347Z,11.75
2019-01-11T17:25:00.797Z,11.68
2019-01-11T17:27:03.724Z,12.40
2019-01-11T17:29:06.662Z,11.90
2019-01-11T17:31:11.107Z,12.63
2019-01-11T17:33:14.782Z,11.33
2019-01-11T17:35:18.028Z,11.55
2019-01-11T17:37:20.970Z,11.32
2019-01-11T17:39:24.649Z,10.57
2019-01-11T17:41:27.862Z,9.93
2019-01-11T17:43:31.544Z,10.00
2019-01-11T17:45:35.263Z,10.90
2019-01-11T17:47:38.963Z,11.55
2019-01-11T17:49:42.641Z,15.48
2019-01-11T17:51:46.327Z,10.20
2019-01-11T17:53:49.269Z,9.50
2019-01-11T17:55:52.173Z,9.90
2019-01-11T17:57:55.090Z,10.07
2019-01-11T17:59:58.198Z,10.10
2019-01-11T18:02:01.390Z,9.20
2019-01-11T18:04:05.061Z,10.15
2019-01-11T18:06:09.510Z,10.33
2019-01-11T18:08:12.421Z,9.43
2019-01-11T18:10:16.981Z,10.30
2019-01-11T18:12:21.440Z,9.13
2019-01-11T18:14:24.353Z,10.50
2019-01-11T18:16:28.789Z,15.13
2019-01-11T18:18:31.910Z,9.70
2019-01-11T18:20:36.073Z,9.75
2019-01-11T18:22:37.739Z,9.18
2019-01-11T18:24:40.690Z,8.32
2019-01-11T18:26:43.632Z,9.00
2019-01-11T18:28:47.301Z,7.90
2019-01-11T18:30:50.244Z,10.30
2019-01-11T18:32:53.177Z,8.70
2019-01-11T18:34:56.859Z,9.95
2019-01-11T18:37:00.002Z,9.10
2019-01-11T18:39:02.919Z,9.37
2019-01-11T18:41:05.838Z,8.80
2019-01-11T18:43:09.557Z,8.67
2019-01-11T18:45:12.461Z,8.97
2019-01-11T18:47:16.225Z,8.32
2019-01-11T18:49:20.338Z,9.23
2019-01-11T18:51:23.267Z,7.93
2019-01-11T18:53:26.174Z,10.52
2019-01-11T18:55:29.127Z,8.98
2019-01-11T18:57:32.039Z,9.02
2019-01-11T18:59:36.475Z,8.95
2019-01-11T19:01:40.281Z,8.30
2019-01-11T19:03:43.949Z,9.10
2019-01-11T19:05:48.587Z,9.18
2019-01-11T19:07:50.101Z,8.82
2019-01-11T19:09:52.945Z,10.18
2019-01-11T19:11:55.867Z,9.38
2019-01-11T19:13:58.804Z,9.93
2019-01-11T19:16:01.721Z,9.98
2019-01-11T19:18:04.670Z,10.73
2019-01-11T19:20:09.337Z,10.47
2019-01-11T19:22:12.361Z,10.40
2019-01-11T19:24:16.045Z,10.18
2019-01-11T19:26:19.558Z,10.63
2019-01-11T19:28:23.229Z,10.48
2019-01-11T19:30:26.169Z,11.18
2019-01-11T19:32:29.251Z,11.48
2019-01-11T19:34:32.313Z,9.95
2019-01-11T19:36:35.503Z,10.32
2019-01-11T19:38:38.526Z,10.73
2019-01-11T19:40:41.473Z,10.73
2019-01-11T19:42:44.401Z,11.93
2019-01-11T19:44:47.349Z,11.95
2019-01-11T19:46:51.098Z,11.60
2019-01-11T19:48:54.237Z,11.18
2019-01-11T19:50:57.285Z,10.53
2019-01-11T19:53:00.965Z,10.70
2019-01-11T19:55:03.892Z,10.73
2019-01-11T19:57:06.841Z,9.48
2019-01-11T19:59:09.759Z,9.45
2019-01-11T20:01:12.698Z,11.05
2019-01-11T20:03:15.757Z,9.05
2019-01-11T20:05:18.693Z,9.57
2019-01-11T20:07:22.408Z,9.83
2019-01-11T20:09:26.105Z,10.47
2019-01-11T20:11:29.054Z,9.93
2019-01-11T20:13:33.594Z,10.23
2019-01-11T20:15:37.444Z,9.98
2019-01-11T20:17:40.354Z,10.43
2019-01-11T20:19:44.181Z,11.12
2019-01-11T20:21:47.985Z,9.85
2019-01-11T20:23:51.685Z,9.75
2019-01-11T20:25:55.365Z,10.13
2019-01-11T20:27:59.186Z,10.55
2019-01-11T20:30:02.865Z,10.32
2019-01-11T20:32:06.589Z,9.50
2019-01-11T20:34:10.390Z,10.30
2019-01-11T20:36:14.086Z,8.50
2019-01-11T20:38:17.773Z,8.52
2019-01-11T20:40:20.711Z,9.73
2019-01-11T20:42:23.624Z,8.85
2019-01-11T20:44:26.577Z,9.23
2019-01-11T20:46:30.330Z,9.70
2019-01-11T20:48:34.005Z,8.88
2019-01-11T20:50:37.017Z,9.40
2019-01-11T20:52:40.925Z,8.70
2019-01-11T20:54:44.604Z,8.27
2019-01-11T20:56:47.524Z,7.60
2019-01-11T20:58:50.572Z,8.38
2019-01-11T21:00:53.526Z,7.60
2019-01-11T21:02:56.433Z,8.32
2019-01-11T21:05:00.945Z,8.35
2019-01-11T21:07:04.650Z,9.10
2019-01-11T21:09:08.371Z,8.45
2019-01-11T21:11:12.174Z,9.48
2019-01-11T21:13:15.861Z,9.63
2019-01-11T21:15:19.575Z,9.48
2019-01-11T21:17:23.373Z,8.10
2019-01-11T21:19:27.141Z,9.20
2019-01-11T21:21:30.079Z,8.23
2019-01-11T21:23:33.347Z,9.03
2019-01-11T21:25:37.378Z,8.00
2019-01-11T21:27:40.403Z,9.27
2019-01-11T21:29:43.835Z,9.48
2019-01-11T21:31:47.510Z,10.07
2019-01-11T21:33:51.337Z,10.32
2019-01-11T21:35:55.671Z,10.27
2019-01-11T21:37:58.720Z,9.43
2019-01-11T21:40:01.778Z,9.80
2019-01-11T21:42:05.461Z,9.90
2019-01-11T21:44:08.427Z,9.35
2019-01-11T21:46:12.107Z,10.27
2019-01-11T21:48:15.501Z,10.07
2019-01-11T21:50:19.917Z,9.65
2019-01-11T21:52:23.171Z,9.25
2019-01-11T21:54:26.886Z,9.93
2019-01-11T21:56:30.911Z,9.10
2019-01-11T21:58:34.285Z,10.30
2019-01-11T22:00:37.284Z,9.73
2019-01-11T22:02:40.222Z,10.65
2019-01-11T22:04:43.764Z,10.60
2019-01-11T22:06:47.842Z,10.70
2019-01-11T22:08:50.926Z,10.25
2019-01-11T22:10:54.404Z,8.70
2019-01-11T22:12:57.349Z,9.45
2019-01-11T22:15:00.369Z,9.50
2019-01-11T22:17:03.322Z,9.88
2019-01-11T22:19:06.547Z,9.55
2019-01-11T22:21:09.722Z,8.85
2019-01-11T23:06:36.472Z,8.00
2019-01-11T23:08:39.415Z,8.07
2019-01-11T23:10:48.946Z,9.60
2019-01-11T23:12:51.938Z,9.60
2019-01-11T23:14:54.899Z,8.80
2019-01-11T23:16:57.798Z,8.00
2019-01-11T23:19:00.753Z,8.70
2019-01-11T23:21:06.286Z,9.37
2019-01-11T23:23:09.988Z,9.57
2019-01-11T23:25:13.928Z,9.50
2019-01-11T23:27:17.545Z,10.00
2019-01-11T23:29:20.580Z,8.98
2019-01-11T23:31:24.787Z,9.38
2019-01-11T23:33:28.449Z,8.88
2019-01-11T23:35:31.415Z,8.52
2019-01-11T23:37:34.928Z,9.25
2019-01-11T23:39:37.867Z,9.00
2019-01-11T23:41:41.750Z,8.88
2019-01-11T23:43:44.716Z,7.80
2019-01-11T23:45:47.655Z,9.13
2019-01-11T23:47:51.123Z,7.82
2019-01-11T23:49:54.070Z,8.35
2019-01-11T23:51:57.760Z,7.90
2019-01-11T23:54:01.099Z,7.90
2019-01-11T23:56:04.895Z,7.80
2019-01-11T23:58:08.569Z,8.57
